sensor_id;sensor_type;location;lat;lon;timestamp;P1;durP1;ratioP1;P2;durP2;ratioP2
37067;SDS011;22982;42.848;25.468;2023-12-22T00:04:29;13.52;;;8.02;;
37067;SDS011;22982;42.848;25.468;2023-12-22T00:09:32;11.85;;;7.00;;
37067;SDS011;22982;42.848;25.468;2023-12-22T00:14:35;18.92;;;6.68;;
37067;SDS011;22982;42.848;25.468;2023-12-22T00:19:39;13.90;;;7.32;;
37067;SDS011;22982;42.848;25.468;2023-12-22T00:24:42;13.38;;;8.35;;
37067;SDS011;22982;42.848;25.468;2023-12-22T00:29:45;7.90;;;4.55;;
37067;SDS011;22982;42.848;25.468;2023-12-22T00:34:49;14.35;;;8.80;;
37067;SDS011;22982;42.848;25.468;2023-12-22T00:39:51;18.60;;;9.85;;
37067;SDS011;22982;42.848;25.468;2023-12-22T00:44:56;16.25;;;9.20;;
37067;SDS011;22982;42.848;25.468;2023-12-22T00:50:00;16.67;;;7.90;;
37067;SDS011;22982;42.848;25.468;2023-12-22T00:55:02;11.40;;;7.15;;
37067;SDS011;22982;42.848;25.468;2023-12-22T01:00:11;8.60;;;5.28;;
37067;SDS011;22982;42.848;25.468;2023-12-22T01:05:14;11.40;;;6.63;;
37067;SDS011;22982;42.848;25.468;2023-12-22T01:10:16;10.80;;;6.00;;
37067;SDS011;22982;42.848;25.468;2023-12-22T01:15:20;9.07;;;5.40;;
37067;SDS011;22982;42.848;25.468;2023-12-22T01:20:22;8.55;;;4.50;;
37067;SDS011;22982;42.848;25.468;2023-12-22T01:25:25;7.85;;;5.05;;
37067;SDS011;22982;42.848;25.468;2023-12-22T01:30:28;11.40;;;5.68;;
37067;SDS011;22982;42.848;25.468;2023-12-22T01:35:31;7.82;;;5.28;;
37067;SDS011;22982;42.848;25.468;2023-12-22T01:40:34;10.18;;;5.97;;
37067;SDS011;22982;42.848;25.468;2023-12-22T01:45:38;8.93;;;5.32;;
37067;SDS011;22982;42.848;25.468;2023-12-22T01:50:40;12.48;;;7.18;;
37067;SDS011;22982;42.848;25.468;2023-12-22T01:55:43;12.77;;;7.63;;
37067;SDS011;22982;42.848;25.468;2023-12-22T02:00:48;11.90;;;6.75;;
37067;SDS011;22982;42.848;25.468;2023-12-22T02:05:52;9.18;;;4.70;;
37067;SDS011;22982;42.848;25.468;2023-12-22T02:10:54;13.20;;;6.25;;
37067;SDS011;22982;42.848;25.468;2023-12-22T02:16:00;11.05;;;5.88;;
37067;SDS011;22982;42.848;25.468;2023-12-22T02:21:14;13.27;;;7.05;;
37067;SDS011;22982;42.848;25.468;2023-12-22T02:26:33;9.93;;;5.60;;
37067;SDS011;22982;42.848;25.468;2023-12-22T02:31:44;10.55;;;6.53;;
37067;SDS011;22982;42.848;25.468;2023-12-22T02:36:54;11.77;;;6.63;;
37067;SDS011;22982;42.848;25.468;2023-12-22T02:41:59;11.60;;;6.35;;
37067;SDS011;22982;42.848;25.468;2023-12-22T02:47:02;12.90;;;7.32;;
37067;SDS011;22982;42.848;25.468;2023-12-22T02:52:11;9.65;;;6.03;;
37067;SDS011;22982;42.848;25.468;2023-12-22T02:57:13;12.68;;;6.45;;
37067;SDS011;22982;42.848;25.468;2023-12-22T03:02:16;10.48;;;4.80;;
37067;SDS011;22982;42.848;25.468;2023-12-22T03:07:19;13.27;;;5.72;;
37067;SDS011;22982;42.848;25.468;2023-12-22T03:12:22;9.05;;;5.57;;
37067;SDS011;22982;42.848;25.468;2023-12-22T03:17:25;9.13;;;5.18;;
37067;SDS011;22982;42.848;25.468;2023-12-22T03:22:27;12.20;;;5.85;;
37067;SDS011;22982;42.848;25.468;2023-12-22T03:27:30;8.82;;;5.38;;
37067;SDS011;22982;42.848;25.468;2023-12-22T03:32:33;9.77;;;5.70;;
37067;SDS011;22982;42.848;25.468;2023-12-22T03:37:35;9.82;;;5.72;;
37067;SDS011;22982;42.848;25.468;2023-12-22T03:42:45;9.30;;;5.50;;
37067;SDS011;22982;42.848;25.468;2023-12-22T03:47:47;8.90;;;5.32;;
37067;SDS011;22982;42.848;25.468;2023-12-22T03:52:51;8.95;;;6.05;;
37067;SDS011;22982;42.848;25.468;2023-12-22T03:57:53;8.07;;;5.32;;
37067;SDS011;22982;42.848;25.468;2023-12-22T04:02:57;10.10;;;5.78;;
37067;SDS011;22982;42.848;25.468;2023-12-22T04:07:59;9.57;;;5.82;;
37067;SDS011;22982;42.848;25.468;2023-12-22T04:13:04;13.23;;;9.10;;
37067;SDS011;22982;42.848;25.468;2023-12-22T04:18:07;10.60;;;6.90;;
37067;SDS011;22982;42.848;25.468;2023-12-22T04:23:12;22.73;;;12.50;;
37067;SDS011;22982;42.848;25.468;2023-12-22T04:28:15;18.85;;;10.68;;
37067;SDS011;22982;42.848;25.468;2023-12-22T04:33:17;19.50;;;11.25;;
37067;SDS011;22982;42.848;25.468;2023-12-22T04:38:23;16.88;;;10.93;;
37067;SDS011;22982;42.848;25.468;2023-12-22T04:43:26;23.95;;;14.98;;
37067;SDS011;22982;42.848;25.468;2023-12-22T04:48:29;27.38;;;16.58;;
37067;SDS011;22982;42.848;25.468;2023-12-22T04:53:31;22.95;;;15.00;;
37067;SDS011;22982;42.848;25.468;2023-12-22T04:58:37;30.77;;;17.20;;
37067;SDS011;22982;42.848;25.468;2023-12-22T05:03:40;27.98;;;16.42;;
37067;SDS011;22982;42.848;25.468;2023-12-22T05:08:48;24.85;;;14.35;;
37067;SDS011;22982;42.848;25.468;2023-12-22T05:13:51;23.17;;;15.02;;
37067;SDS011;22982;42.848;25.468;2023-12-22T05:24:21;18.88;;;12.45;;
37067;SDS011;22982;42.848;25.468;2023-12-22T05:29:25;24.88;;;15.27;;
37067;SDS011;22982;42.848;25.468;2023-12-22T05:34:28;27.70;;;17.13;;
37067;SDS011;22982;42.848;25.468;2023-12-22T05:39:33;23.80;;;14.30;;
37067;SDS011;22982;42.848;25.468;2023-12-22T05:44:35;25.48;;;14.82;;
37067;SDS011;22982;42.848;25.468;2023-12-22T05:49:40;26.33;;;15.40;;
37067;SDS011;22982;42.848;25.468;2023-12-22T05:54:43;21.63;;;14.50;;
37067;SDS011;22982;42.848;25.468;2023-12-22T05:59:45;22.65;;;13.45;;
37067;SDS011;22982;42.848;25.468;2023-12-22T06:10:15;34.25;;;20.30;;
37067;SDS011;22982;42.848;25.468;2023-12-22T06:15:19;29.52;;;18.05;;
37067;SDS011;22982;42.848;25.468;2023-12-22T06:20:21;41.58;;;24.17;;
37067;SDS011;22982;42.848;25.468;2023-12-22T06:25:28;46.72;;;28.23;;
37067;SDS011;22982;42.848;25.468;2023-12-22T06:30:31;69.97;;;40.58;;
37067;SDS011;22982;42.848;25.468;2023-12-22T06:35:33;111.80;;;63.22;;
37067;SDS011;22982;42.848;25.468;2023-12-22T06:40:39;64.65;;;35.60;;
37067;SDS011;22982;42.848;25.468;2023-12-22T06:45:42;85.07;;;44.35;;
37067;SDS011;22982;42.848;25.468;2023-12-22T06:50:44;73.53;;;40.17;;
37067;SDS011;22982;42.848;25.468;2023-12-22T06:55:47;76.80;;;40.97;;
37067;SDS011;22982;42.848;25.468;2023-12-22T07:00:51;67.18;;;37.80;;
37067;SDS011;22982;42.848;25.468;2023-12-22T07:05:53;34.58;;;21.20;;
37067;SDS011;22982;42.848;25.468;2023-12-22T07:11:00;55.40;;;30.73;;
37067;SDS011;22982;42.848;25.468;2023-12-22T07:16:06;51.78;;;30.35;;
37067;SDS011;22982;42.848;25.468;2023-12-22T07:21:17;52.05;;;31.73;;
37067;SDS011;22982;42.848;25.468;2023-12-22T07:26:20;44.72;;;27.15;;
37067;SDS011;22982;42.848;25.468;2023-12-22T07:31:26;42.17;;;26.23;;
37067;SDS011;22982;42.848;25.468;2023-12-22T07:49:03;49.60;;;28.98;;
37067;SDS011;22982;42.848;25.468;2023-12-22T07:54:06;45.05;;;29.17;;
37067;SDS011;22982;42.848;25.468;2023-12-22T07:59:10;59.10;;;36.50;;
37067;SDS011;22982;42.848;25.468;2023-12-22T08:04:30;59.72;;;36.35;;
37067;SDS011;22982;42.848;25.468;2023-12-22T08:09:37;55.50;;;32.45;;
37067;SDS011;22982;42.848;25.468;2023-12-22T08:14:40;72.50;;;41.50;;
37067;SDS011;22982;42.848;25.468;2023-12-22T08:19:43;55.35;;;34.88;;
37067;SDS011;22982;42.848;25.468;2023-12-22T08:24:49;82.28;;;47.72;;
37067;SDS011;22982;42.848;25.468;2023-12-22T08:29:53;63.65;;;37.25;;
37067;SDS011;22982;42.848;25.468;2023-12-22T08:34:55;63.97;;;39.95;;
37067;SDS011;22982;42.848;25.468;2023-12-22T08:39:58;64.05;;;40.10;;
37067;SDS011;22982;42.848;25.468;2023-12-22T08:45:02;75.50;;;44.20;;
37067;SDS011;22982;42.848;25.468;2023-12-22T08:50:07;71.60;;;45.28;;
37067;SDS011;22982;42.848;25.468;2023-12-22T08:55:12;90.75;;;53.92;;
37067;SDS011;22982;42.848;25.468;2023-12-22T09:00:17;108.78;;;68.55;;
37067;SDS011;22982;42.848;25.468;2023-12-22T09:05:20;89.03;;;57.72;;
37067;SDS011;22982;42.848;25.468;2023-12-22T09:10:24;104.35;;;65.28;;
37067;SDS011;22982;42.848;25.468;2023-12-22T09:15:27;168.30;;;90.30;;
37067;SDS011;22982;42.848;25.468;2023-12-22T09:20:35;104.30;;;65.10;;
37067;SDS011;22982;42.848;25.468;2023-12-22T09:25:37;86.85;;;53.97;;
37067;SDS011;22982;42.848;25.468;2023-12-22T09:30:40;87.55;;;54.58;;
37067;SDS011;22982;42.848;25.468;2023-12-22T09:35:46;139.25;;;81.90;;
37067;SDS011;22982;42.848;25.468;2023-12-22T09:40:49;137.68;;;84.78;;
37067;SDS011;22982;42.848;25.468;2023-12-22T09:45:52;176.10;;;111.05;;
37067;SDS011;22982;42.848;25.468;2023-12-22T09:50:55;152.50;;;98.20;;
37067;SDS011;22982;42.848;25.468;2023-12-22T09:55:59;125.85;;;76.93;;
37067;SDS011;22982;42.848;25.468;2023-12-22T10:01:03;128.38;;;80.50;;
37067;SDS011;22982;42.848;25.468;2023-12-22T10:06:07;91.38;;;57.92;;
37067;SDS011;22982;42.848;25.468;2023-12-22T10:11:10;44.22;;;29.88;;
37067;SDS011;22982;42.848;25.468;2023-12-22T10:16:14;7.47;;;3.90;;
37067;SDS011;22982;42.848;25.468;2023-12-22T10:28:10;7.38;;;4.55;;
37067;SDS011;22982;42.848;25.468;2023-12-22T10:45:00;17.92;;;14.05;;
37067;SDS011;22982;42.848;25.468;2023-12-22T10:50:04;6.85;;;5.95;;
37067;SDS011;22982;42.848;25.468;2023-12-22T10:55:07;10.65;;;6.05;;
37067;SDS011;22982;42.848;25.468;2023-12-22T11:00:10;12.52;;;9.10;;
37067;SDS011;22982;42.848;25.468;2023-12-22T11:05:14;12.52;;;8.98;;
37067;SDS011;22982;42.848;25.468;2023-12-22T11:10:20;5.72;;;4.82;;
37067;SDS011;22982;42.848;25.468;2023-12-22T11:15:24;6.38;;;4.47;;
37067;SDS011;22982;42.848;25.468;2023-12-22T11:20:29;6.47;;;4.25;;
37067;SDS011;22982;42.848;25.468;2023-12-22T11:25:34;2.13;;;1.95;;
37067;SDS011;22982;42.848;25.468;2023-12-22T11:30:42;16.67;;;11.00;;
37067;SDS011;22982;42.848;25.468;2023-12-22T11:35:46;6.68;;;5.25;;
37067;SDS011;22982;42.848;25.468;2023-12-22T11:40:50;2.85;;;2.10;;
37067;SDS011;22982;42.848;25.468;2023-12-22T11:45:54;3.75;;;1.73;;
37067;SDS011;22982;42.848;25.468;2023-12-22T11:50:58;4.50;;;3.47;;
37067;SDS011;22982;42.848;25.468;2023-12-22T11:56:04;5.55;;;4.45;;
37067;SDS011;22982;42.848;25.468;2023-12-22T12:01:11;2.50;;;2.13;;
37067;SDS011;22982;42.848;25.468;2023-12-22T12:17:08;5.78;;;5.25;;
37067;SDS011;22982;42.848;25.468;2023-12-22T12:22:18;3.03;;;2.70;;
37067;SDS011;22982;42.848;25.468;2023-12-22T12:27:23;4.65;;;3.75;;
37067;SDS011;22982;42.848;25.468;2023-12-22T12:32:31;2.78;;;2.42;;
37067;SDS011;22982;42.848;25.468;2023-12-22T12:37:33;4.13;;;3.72;;
37067;SDS011;22982;42.848;25.468;2023-12-22T12:42:40;2.10;;;1.80;;
37067;SDS011;22982;42.848;25.468;2023-12-22T12:47:43;3.17;;;2.88;;
37067;SDS011;22982;42.848;25.468;2023-12-22T12:52:49;4.78;;;2.75;;
37067;SDS011;22982;42.848;25.468;2023-12-22T12:57:52;3.90;;;3.50;;
37067;SDS011;22982;42.848;25.468;2023-12-22T13:03:00;2.97;;;2.10;;
37067;SDS011;22982;42.848;25.468;2023-12-22T13:08:09;2.25;;;2.00;;
37067;SDS011;22982;42.848;25.468;2023-12-22T13:13:14;2.17;;;1.90;;
37067;SDS011;22982;42.848;25.468;2023-12-22T13:18:16;6.00;;;4.30;;
37067;SDS011;22982;42.848;25.468;2023-12-22T13:23:19;2.83;;;2.50;;
37067;SDS011;22982;42.848;25.468;2023-12-22T13:28:46;5.60;;;4.13;;
37067;SDS011;22982;42.848;25.468;2023-12-22T13:33:50;12.57;;;8.35;;
37067;SDS011;22982;42.848;25.468;2023-12-22T13:38:52;4.35;;;3.05;;
37067;SDS011;22982;42.848;25.468;2023-12-22T13:43:56;5.55;;;4.25;;
37067;SDS011;22982;42.848;25.468;2023-12-22T13:48:59;2.30;;;1.90;;
37067;SDS011;22982;42.848;25.468;2023-12-22T13:54:02;3.65;;;2.78;;
37067;SDS011;22982;42.848;25.468;2023-12-22T13:59:05;8.27;;;6.90;;
37067;SDS011;22982;42.848;25.468;2023-12-22T14:04:08;6.82;;;4.45;;
37067;SDS011;22982;42.848;25.468;2023-12-22T14:09:14;5.70;;;3.50;;
37067;SDS011;22982;42.848;25.468;2023-12-22T14:14:19;4.05;;;2.40;;
37067;SDS011;22982;42.848;25.468;2023-12-22T14:19:23;7.10;;;4.63;;
37067;SDS011;22982;42.848;25.468;2023-12-22T14:24:25;35.80;;;23.10;;
37067;SDS011;22982;42.848;25.468;2023-12-22T14:29:32;10.20;;;4.95;;
37067;SDS011;22982;42.848;25.468;2023-12-22T14:34:37;19.35;;;14.25;;
37067;SDS011;22982;42.848;25.468;2023-12-22T14:39:43;10.57;;;7.47;;
37067;SDS011;22982;42.848;25.468;2023-12-22T14:44:58;38.58;;;22.88;;
37067;SDS011;22982;42.848;25.468;2023-12-22T15:09:30;15.50;;;9.40;;
37067;SDS011;22982;42.848;25.468;2023-12-22T15:14:33;32.65;;;16.45;;
37067;SDS011;22982;42.848;25.468;2023-12-22T15:19:42;4.55;;;3.28;;
37067;SDS011;22982;42.848;25.468;2023-12-22T15:24:48;7.95;;;4.80;;
37067;SDS011;22982;42.848;25.468;2023-12-22T15:29:56;28.88;;;21.83;;
37067;SDS011;22982;42.848;25.468;2023-12-22T15:41:58;13.30;;;10.68;;
37067;SDS011;22982;42.848;25.468;2023-12-22T15:52:46;2.85;;;2.03;;
37067;SDS011;22982;42.848;25.468;2023-12-22T15:57:49;5.93;;;2.47;;
37067;SDS011;22982;42.848;25.468;2023-12-22T16:02:51;6.60;;;5.00;;
37067;SDS011;22982;42.848;25.468;2023-12-22T16:07:55;6.88;;;3.72;;
37067;SDS011;22982;42.848;25.468;2023-12-22T16:13:03;10.07;;;6.90;;
37067;SDS011;22982;42.848;25.468;2023-12-22T16:18:09;6.22;;;3.78;;
37067;SDS011;22982;42.848;25.468;2023-12-22T16:23:11;8.93;;;4.65;;
37067;SDS011;22982;42.848;25.468;2023-12-22T16:28:15;9.20;;;6.85;;
37067;SDS011;22982;42.848;25.468;2023-12-22T16:33:18;8.88;;;7.80;;
37067;SDS011;22982;42.848;25.468;2023-12-22T16:38:20;12.88;;;8.63;;
37067;SDS011;22982;42.848;25.468;2023-12-22T16:43:23;7.97;;;7.10;;
37067;SDS011;22982;42.848;25.468;2023-12-22T16:48:26;3.63;;;3.25;;
37067;SDS011;22982;42.848;25.468;2023-12-22T16:53:32;2.40;;;2.20;;
37067;SDS011;22982;42.848;25.468;2023-12-22T16:58:34;2.60;;;1.60;;
37067;SDS011;22982;42.848;25.468;2023-12-22T17:03:40;9.18;;;6.88;;
37067;SDS011;22982;42.848;25.468;2023-12-22T17:08:42;3.10;;;1.88;;
37067;SDS011;22982;42.848;25.468;2023-12-22T17:13:46;3.80;;;3.15;;
37067;SDS011;22982;42.848;25.468;2023-12-22T17:24:02;5.00;;;3.25;;
37067;SDS011;22982;42.848;25.468;2023-12-22T17:29:05;6.50;;;4.97;;
37067;SDS011;22982;42.848;25.468;2023-12-22T17:34:09;6.65;;;3.60;;
37067;SDS011;22982;42.848;25.468;2023-12-22T17:39:12;1.00;;;0.90;;
37067;SDS011;22982;42.848;25.468;2023-12-22T17:44:16;5.53;;;3.50;;
37067;SDS011;22982;42.848;25.468;2023-12-22T17:49:18;4.50;;;3.05;;
37067;SDS011;22982;42.848;25.468;2023-12-22T17:54:21;10.32;;;5.82;;
37067;SDS011;22982;42.848;25.468;2023-12-22T17:59:26;3.90;;;1.60;;
37067;SDS011;22982;42.848;25.468;2023-12-22T18:04:29;8.68;;;5.85;;
37067;SDS011;22982;42.848;25.468;2023-12-22T18:09:33;8.68;;;6.65;;
37067;SDS011;22982;42.848;25.468;2023-12-22T18:14:40;10.55;;;8.63;;
37067;SDS011;22982;42.848;25.468;2023-12-22T18:19:45;5.57;;;3.90;;
37067;SDS011;22982;42.848;25.468;2023-12-22T18:24:48;7.95;;;5.28;;
37067;SDS011;22982;42.848;25.468;2023-12-22T18:29:50;22.92;;;10.20;;
37067;SDS011;22982;42.848;25.468;2023-12-22T18:34:55;11.93;;;7.03;;
37067;SDS011;22982;42.848;25.468;2023-12-22T18:39:57;18.45;;;11.00;;
37067;SDS011;22982;42.848;25.468;2023-12-22T18:45:00;7.78;;;3.00;;
37067;SDS011;22982;42.848;25.468;2023-12-22T18:50:03;12.38;;;8.70;;
37067;SDS011;22982;42.848;25.468;2023-12-22T18:55:05;5.30;;;2.33;;
37067;SDS011;22982;42.848;25.468;2023-12-22T19:00:09;5.25;;;2.90;;
37067;SDS011;22982;42.848;25.468;2023-12-22T19:05:13;42.72;;;23.70;;
37067;SDS011;22982;42.848;25.468;2023-12-22T19:10:16;27.55;;;12.98;;
37067;SDS011;22982;42.848;25.468;2023-12-22T19:15:19;4.82;;;2.67;;
37067;SDS011;22982;42.848;25.468;2023-12-22T19:20:22;4.90;;;1.73;;
37067;SDS011;22982;42.848;25.468;2023-12-22T19:25:25;16.35;;;9.75;;
37067;SDS011;22982;42.848;25.468;2023-12-22T19:30:28;9.07;;;6.35;;
37067;SDS011;22982;42.848;25.468;2023-12-22T19:35:31;6.10;;;3.67;;
37067;SDS011;22982;42.848;25.468;2023-12-22T19:40:33;5.30;;;3.00;;
37067;SDS011;22982;42.848;25.468;2023-12-22T19:45:36;4.90;;;3.10;;
37067;SDS011;22982;42.848;25.468;2023-12-22T19:50:41;9.70;;;6.75;;
37067;SDS011;22982;42.848;25.468;2023-12-22T19:55:47;9.88;;;5.40;;
37067;SDS011;22982;42.848;25.468;2023-12-22T20:00:50;3.05;;;1.77;;
37067;SDS011;22982;42.848;25.468;2023-12-22T20:05:53;2.78;;;1.75;;
37067;SDS011;22982;42.848;25.468;2023-12-22T20:10:58;4.32;;;2.72;;
37067;SDS011;22982;42.848;25.468;2023-12-22T20:16:01;37.97;;;22.05;;
37067;SDS011;22982;42.848;25.468;2023-12-22T20:22:18;21.08;;;11.10;;
37067;SDS011;22982;42.848;25.468;2023-12-22T20:27:21;22.55;;;11.43;;
37067;SDS011;22982;42.848;25.468;2023-12-22T20:32:23;6.30;;;2.60;;
37067;SDS011;22982;42.848;25.468;2023-12-22T20:37:27;17.05;;;7.82;;
37067;SDS011;22982;42.848;25.468;2023-12-22T20:42:29;7.55;;;4.80;;
37067;SDS011;22982;42.848;25.468;2023-12-22T20:47:33;13.30;;;6.40;;
37067;SDS011;22982;42.848;25.468;2023-12-22T20:52:36;5.32;;;3.40;;
37067;SDS011;22982;42.848;25.468;2023-12-22T20:57:40;2.58;;;1.85;;
37067;SDS011;22982;42.848;25.468;2023-12-22T21:02:44;2.90;;;1.70;;
37067;SDS011;22982;42.848;25.468;2023-12-22T21:07:47;3.70;;;2.28;;
37067;SDS011;22982;42.848;25.468;2023-12-22T21:12:53;6.43;;;2.97;;
37067;SDS011;22982;42.848;25.468;2023-12-22T21:17:55;7.90;;;4.40;;
37067;SDS011;22982;42.848;25.468;2023-12-22T21:22:59;20.70;;;8.20;;
37067;SDS011;22982;42.848;25.468;2023-12-22T21:28:11;5.68;;;3.15;;
37067;SDS011;22982;42.848;25.468;2023-12-22T21:33:14;11.85;;;5.50;;
37067;SDS011;22982;42.848;25.468;2023-12-22T21:38:17;2.47;;;1.88;;
37067;SDS011;22982;42.848;25.468;2023-12-22T21:43:20;3.42;;;2.20;;
37067;SDS011;22982;42.848;25.468;2023-12-22T21:48:24;8.48;;;4.05;;
37067;SDS011;22982;42.848;25.468;2023-12-22T21:53:27;46.03;;;19.45;;
37067;SDS011;22982;42.848;25.468;2023-12-22T21:58:30;3.20;;;2.40;;
37067;SDS011;22982;42.848;25.468;2023-12-22T22:03:33;3.83;;;2.45;;
37067;SDS011;22982;42.848;25.468;2023-12-22T22:08:40;70.63;;;33.30;;
37067;SDS011;22982;42.848;25.468;2023-12-22T22:13:46;7.13;;;4.35;;
37067;SDS011;22982;42.848;25.468;2023-12-22T22:18:48;4.85;;;2.72;;
37067;SDS011;22982;42.848;25.468;2023-12-22T22:23:52;3.00;;;1.90;;
37067;SDS011;22982;42.848;25.468;2023-12-22T22:28:55;9.38;;;4.18;;
37067;SDS011;22982;42.848;25.468;2023-12-22T22:33:58;4.57;;;2.72;;
37067;SDS011;22982;42.848;25.468;2023-12-22T22:39:01;17.20;;;9.10;;
37067;SDS011;22982;42.848;25.468;2023-12-22T22:44:05;27.13;;;12.93;;
37067;SDS011;22982;42.848;25.468;2023-12-22T22:49:10;3.03;;;1.98;;
37067;SDS011;22982;42.848;25.468;2023-12-22T22:54:14;2.42;;;2.20;;
37067;SDS011;22982;42.848;25.468;2023-12-22T22:59:17;1.33;;;1.13;;
37067;SDS011;22982;42.848;25.468;2023-12-22T23:04:20;4.43;;;2.38;;
37067;SDS011;22982;42.848;25.468;2023-12-22T23:09:24;17.38;;;9.50;;
37067;SDS011;22982;42.848;25.468;2023-12-22T23:14:30;2.03;;;1.30;;
37067;SDS011;22982;42.848;25.468;2023-12-22T23:19:32;1.35;;;1.15;;
37067;SDS011;22982;42.848;25.468;2023-12-22T23:24:36;2.38;;;2.13;;
37067;SDS011;22982;42.848;25.468;2023-12-22T23:29:39;1.40;;;1.27;;
37067;SDS011;22982;42.848;25.468;2023-12-22T23:34:41;2.67;;;1.35;;
37067;SDS011;22982;42.848;25.468;2023-12-22T23:39:49;4.93;;;3.13;;
37067;SDS011;22982;42.848;25.468;2023-12-22T23:44:51;1.10;;;1.00;;
37067;SDS011;22982;42.848;25.468;2023-12-22T23:49:55;1.55;;;1.30;;
37067;SDS011;22982;42.848;25.468;2023-12-22T23:54:57;1.65;;;1.40;;
